sensor_id;sensor_type;location;lat;lon;timestamp;temperature;humidity
16491;DHT22;8356;51.214;3.270;2024-03-25T00:02:13;230.50;2252.80
16491;DHT22;8356;51.214;3.270;2024-03-25T00:04:39;230.50;2252.80
16491;DHT22;8356;51.214;3.270;2024-03-25T00:07:04;230.50;2252.80
16491;DHT22;8356;51.214;3.270;2024-03-25T00:09:30;230.40;2252.80
16491;DHT22;8356;51.214;3.270;2024-03-25T00:11:56;230.40;2252.80
16491;DHT22;8356;51.214;3.270;2024-03-25T00:14:22;230.40;2252.80
16491;DHT22;8356;51.214;3.270;2024-03-25T00:16:47;205.70;2252.80
16491;DHT22;8356;51.214;3.270;2024-03-25T00:19:14;205.70;2252.80
16491;DHT22;8356;51.214;3.270;2024-03-25T00:21:40;205.70;2252.80
16491;DHT22;8356;51.214;3.270;2024-03-25T00:24:05;205.70;2252.80
16491;DHT22;8356;51.214;3.270;2024-03-25T00:26:31;205.70;2252.80
16491;DHT22;8356;51.214;3.270;2024-03-25T00:28:57;205.70;2252.80
16491;DHT22;8356;51.214;3.270;2024-03-25T00:31:23;205.70;2252.80
16491;DHT22;8356;51.214;3.270;2024-03-25T00:33:48;205.70;2252.80
16491;DHT22;8356;51.214;3.270;2024-03-25T00:36:14;205.60;2252.80
16491;DHT22;8356;51.214;3.270;2024-03-25T00:38:40;205.70;2252.80
16491;DHT22;8356;51.214;3.270;2024-03-25T00:41:05;205.60;2252.80
16491;DHT22;8356;51.214;3.270;2024-03-25T00:43:31;205.60;2252.80
16491;DHT22;8356;51.214;3.270;2024-03-25T00:45:57;205.60;2252.80
16491;DHT22;8356;51.214;3.270;2024-03-25T00:48:25;205.40;2252.80
16491;DHT22;8356;51.214;3.270;2024-03-25T00:50:50;205.40;2252.80
16491;DHT22;8356;51.214;3.270;2024-03-25T00:53:16;205.30;2252.80
16491;DHT22;8356;51.214;3.270;2024-03-25T00:55:43;205.30;2252.80
16491;DHT22;8356;51.214;3.270;2024-03-25T00:58:09;205.40;2252.80
16491;DHT22;8356;51.214;3.270;2024-03-25T01:00:35;205.00;2252.80
16491;DHT22;8356;51.214;3.270;2024-03-25T01:03:01;205.30;2252.80
16491;DHT22;8356;51.214;3.270;2024-03-25T01:05:26;205.40;2252.80
16491;DHT22;8356;51.214;3.270;2024-03-25T01:07:52;205.40;2252.80
16491;DHT22;8356;51.214;3.270;2024-03-25T01:10:17;205.40;2252.80
16491;DHT22;8356;51.214;3.270;2024-03-25T01:12:43;205.40;2252.80
16491;DHT22;8356;51.214;3.270;2024-03-25T01:15:08;205.20;2252.80
16491;DHT22;8356;51.214;3.270;2024-03-25T01:17:37;205.20;2252.80
16491;DHT22;8356;51.214;3.270;2024-03-25T01:20:03;205.20;2252.80
16491;DHT22;8356;51.214;3.270;2024-03-25T01:22:30;205.20;2252.80
16491;DHT22;8356;51.214;3.270;2024-03-25T01:24:57;205.00;2252.80
16491;DHT22;8356;51.214;3.270;2024-03-25T01:27:22;205.00;2252.80
16491;DHT22;8356;51.214;3.270;2024-03-25T01:29:48;205.10;2252.80
16491;DHT22;8356;51.214;3.270;2024-03-25T01:32:14;205.10;2252.80
16491;DHT22;8356;51.214;3.270;2024-03-25T01:34:39;205.10;2252.80
16491;DHT22;8356;51.214;3.270;2024-03-25T01:37:05;205.10;2252.80
16491;DHT22;8356;51.214;3.270;2024-03-25T01:39:31;205.10;2252.80
16491;DHT22;8356;51.214;3.270;2024-03-25T01:41:56;205.00;2252.80
16491;DHT22;8356;51.214;3.270;2024-03-25T01:44:22;205.10;2252.80
16491;DHT22;8356;51.214;3.270;2024-03-25T01:46:48;205.30;2252.80
16491;DHT22;8356;51.214;3.270;2024-03-25T01:49:14;205.30;2252.80
16491;DHT22;8356;51.214;3.270;2024-03-25T01:51:40;205.20;2252.80
16491;DHT22;8356;51.214;3.270;2024-03-25T01:54:07;205.20;2252.80
16491;DHT22;8356;51.214;3.270;2024-03-25T01:56:35;205.00;2252.80
16491;DHT22;8356;51.214;3.270;2024-03-25T01:59:02;204.90;2252.80
16491;DHT22;8356;51.214;3.270;2024-03-25T02:01:28;205.40;2252.80
16491;DHT22;8356;51.214;3.270;2024-03-25T02:03:55;204.80;2252.80
16491;DHT22;8356;51.214;3.270;2024-03-25T02:06:22;204.80;2252.80
16491;DHT22;8356;51.214;3.270;2024-03-25T02:08:49;204.80;2252.80
16491;DHT22;8356;51.214;3.270;2024-03-25T02:11:16;180.10;2252.80
16491;DHT22;8356;51.214;3.270;2024-03-25T02:13:42;204.80;2252.80
16491;DHT22;8356;51.214;3.270;2024-03-25T02:16:08;180.10;2252.80
16491;DHT22;8356;51.214;3.270;2024-03-25T02:18:34;180.10;2252.80
16491;DHT22;8356;51.214;3.270;2024-03-25T02:21:00;204.80;2252.80
16491;DHT22;8356;51.214;3.270;2024-03-25T02:23:26;204.80;2252.80
16491;DHT22;8356;51.214;3.270;2024-03-25T02:25:53;204.80;2252.80
16491;DHT22;8356;51.214;3.270;2024-03-25T02:28:19;204.90;2252.80
16491;DHT22;8356;51.214;3.270;2024-03-25T02:30:45;204.90;2252.80
16491;DHT22;8356;51.214;3.270;2024-03-25T02:33:11;204.90;2252.80
16491;DHT22;8356;51.214;3.270;2024-03-25T02:35:38;204.80;2252.80
16491;DHT22;8356;51.214;3.270;2024-03-25T02:38:05;180.10;2252.80
16491;DHT22;8356;51.214;3.270;2024-03-25T02:40:30;204.80;2252.80
16491;DHT22;8356;51.214;3.270;2024-03-25T02:42:57;204.80;2252.80
16491;DHT22;8356;51.214;3.270;2024-03-25T02:45:22;204.80;2252.80
16491;DHT22;8356;51.214;3.270;2024-03-25T02:47:50;204.80;2252.80
16491;DHT22;8356;51.214;3.270;2024-03-25T02:50:15;204.80;2252.80
16491;DHT22;8356;51.214;3.270;2024-03-25T02:52:41;204.90;2252.80
16491;DHT22;8356;51.214;3.270;2024-03-25T02:55:07;180.10;2252.80
16491;DHT22;8356;51.214;3.270;2024-03-25T02:57:32;180.10;2252.80
16491;DHT22;8356;51.214;3.270;2024-03-25T02:59:58;180.10;2252.80
16491;DHT22;8356;51.214;3.270;2024-03-25T03:02:24;204.80;2252.80
16491;DHT22;8356;51.214;3.270;2024-03-25T03:04:49;204.90;2252.80
16491;DHT22;8356;51.214;3.270;2024-03-25T03:07:15;204.90;2252.80
16491;DHT22;8356;51.214;3.270;2024-03-25T03:09:40;204.90;2252.80
16491;DHT22;8356;51.214;3.270;2024-03-25T03:12:06;180.10;2252.80
16491;DHT22;8356;51.214;3.270;2024-03-25T03:14:32;180.10;2252.80
16491;DHT22;8356;51.214;3.270;2024-03-25T03:16:57;204.80;2252.80
16491;DHT22;8356;51.214;3.270;2024-03-25T03:19:26;204.80;2252.80
16491;DHT22;8356;51.214;3.270;2024-03-25T03:21:53;204.80;2252.80
16491;DHT22;8356;51.214;3.270;2024-03-25T03:24:19;180.00;2252.80
16491;DHT22;8356;51.214;3.270;2024-03-25T03:26:45;204.80;2252.80
16491;DHT22;8356;51.214;3.270;2024-03-25T03:29:10;204.80;2252.80
16491;DHT22;8356;51.214;3.270;2024-03-25T03:31:36;204.90;2252.80
16491;DHT22;8356;51.214;3.270;2024-03-25T03:34:02;204.90;2252.80
16491;DHT22;8356;51.214;3.270;2024-03-25T03:36:28;204.90;2252.80
16491;DHT22;8356;51.214;3.270;2024-03-25T03:38:53;205.00;2252.80
16491;DHT22;8356;51.214;3.270;2024-03-25T03:41:19;204.90;2252.80
16491;DHT22;8356;51.214;3.270;2024-03-25T03:43:45;204.80;2252.80
16491;DHT22;8356;51.214;3.270;2024-03-25T03:46:11;204.80;2252.80
16491;DHT22;8356;51.214;3.270;2024-03-25T03:48:37;204.80;2252.80
16491;DHT22;8356;51.214;3.270;2024-03-25T03:51:07;230.40;2252.80
16491;DHT22;8356;51.214;3.270;2024-03-25T03:53:33;204.90;2252.80
16491;DHT22;8356;51.214;3.270;2024-03-25T03:56:01;205.00;2252.80
16491;DHT22;8356;51.214;3.270;2024-03-25T03:58:27;205.00;2252.80
16491;DHT22;8356;51.214;3.270;2024-03-25T04:00:54;204.90;2252.80
16491;DHT22;8356;51.214;3.270;2024-03-25T04:03:19;204.80;2252.80
16491;DHT22;8356;51.214;3.270;2024-03-25T04:05:45;204.90;2252.80
16491;DHT22;8356;51.214;3.270;2024-03-25T04:08:11;205.00;2252.80
16491;DHT22;8356;51.214;3.270;2024-03-25T04:10:38;205.00;2252.80
16491;DHT22;8356;51.214;3.270;2024-03-25T04:13:04;205.00;2252.80
16491;DHT22;8356;51.214;3.270;2024-03-25T04:15:33;205.00;2252.80
16491;DHT22;8356;51.214;3.270;2024-03-25T04:17:59;205.00;2252.80
16491;DHT22;8356;51.214;3.270;2024-03-25T04:20:26;204.90;2252.80
16491;DHT22;8356;51.214;3.270;2024-03-25T04:22:51;205.00;2252.80
16491;DHT22;8356;51.214;3.270;2024-03-25T04:25:17;205.00;2252.80
16491;DHT22;8356;51.214;3.270;2024-03-25T04:27:43;205.00;2252.80
16491;DHT22;8356;51.214;3.270;2024-03-25T04:30:10;205.00;2252.80
16491;DHT22;8356;51.214;3.270;2024-03-25T04:32:37;205.00;2252.80
16491;DHT22;8356;51.214;3.270;2024-03-25T04:35:04;204.90;2252.80
16491;DHT22;8356;51.214;3.270;2024-03-25T04:37:31;204.90;2252.80
16491;DHT22;8356;51.214;3.270;2024-03-25T04:39:57;205.00;2252.80
16491;DHT22;8356;51.214;3.270;2024-03-25T04:42:23;205.00;2252.80
16491;DHT22;8356;51.214;3.270;2024-03-25T04:44:52;205.00;2252.80
16491;DHT22;8356;51.214;3.270;2024-03-25T04:47:18;204.80;2252.80
16491;DHT22;8356;51.214;3.270;2024-03-25T04:49:44;204.90;2252.80
16491;DHT22;8356;51.214;3.270;2024-03-25T04:52:10;204.90;2252.80
16491;DHT22;8356;51.214;3.270;2024-03-25T04:54:38;204.80;2252.80
16491;DHT22;8356;51.214;3.270;2024-03-25T04:57:04;204.80;2252.80
16491;DHT22;8356;51.214;3.270;2024-03-25T04:59:31;204.80;2252.80
16491;DHT22;8356;51.214;3.270;2024-03-25T05:01:57;204.90;2252.80
16491;DHT22;8356;51.214;3.270;2024-03-25T05:04:23;204.90;2252.80
16491;DHT22;8356;51.214;3.270;2024-03-25T05:06:50;204.90;2252.80
16491;DHT22;8356;51.214;3.270;2024-03-25T05:09:15;204.90;2252.80
16491;DHT22;8356;51.214;3.270;2024-03-25T05:11:42;205.30;2252.80
16491;DHT22;8356;51.214;3.270;2024-03-25T05:14:07;204.80;2252.80
16491;DHT22;8356;51.214;3.270;2024-03-25T05:16:33;204.90;2252.80
16491;DHT22;8356;51.214;3.270;2024-03-25T05:18:59;204.90;2252.80
16491;DHT22;8356;51.214;3.270;2024-03-25T05:21:24;205.00;2252.80
16491;DHT22;8356;51.214;3.270;2024-03-25T05:23:50;205.10;2252.80
16491;DHT22;8356;51.214;3.270;2024-03-25T05:26:15;205.10;2252.80
16491;DHT22;8356;51.214;3.270;2024-03-25T05:28:41;205.10;2252.80
16491;DHT22;8356;51.214;3.270;2024-03-25T05:31:07;205.20;2252.80
16491;DHT22;8356;51.214;3.270;2024-03-25T05:33:33;205.70;2252.80
16491;DHT22;8356;51.214;3.270;2024-03-25T05:35:59;205.30;2252.80
16491;DHT22;8356;51.214;3.270;2024-03-25T05:38:26;205.10;2252.80
16491;DHT22;8356;51.214;3.270;2024-03-25T05:40:52;205.20;2252.80
16491;DHT22;8356;51.214;3.270;2024-03-25T05:43:17;205.20;2252.80
16491;DHT22;8356;51.214;3.270;2024-03-25T05:45:53;205.30;2252.80
16491;DHT22;8356;51.214;3.270;2024-03-25T05:48:19;205.30;2252.80
16491;DHT22;8356;51.214;3.270;2024-03-25T05:50:45;205.30;2252.80
16491;DHT22;8356;51.214;3.270;2024-03-25T05:53:11;205.30;2252.80
16491;DHT22;8356;51.214;3.270;2024-03-25T05:55:37;205.40;2252.80
16491;DHT22;8356;51.214;3.270;2024-03-25T05:58:02;205.50;2252.80
16491;DHT22;8356;51.214;3.270;2024-03-25T06:00:29;230.40;2252.80
16491;DHT22;8356;51.214;3.270;2024-03-25T06:02:56;205.50;2252.80
16491;DHT22;8356;51.214;3.270;2024-03-25T06:05:21;205.40;2252.80
16491;DHT22;8356;51.214;3.270;2024-03-25T06:07:47;205.40;2252.80
16491;DHT22;8356;51.214;3.270;2024-03-25T06:10:13;205.50;2252.80
16491;DHT22;8356;51.214;3.270;2024-03-25T06:12:38;205.50;2252.80
16491;DHT22;8356;51.214;3.270;2024-03-25T06:15:04;205.60;2252.80
16491;DHT22;8356;51.214;3.270;2024-03-25T06:17:30;205.60;2252.80
16491;DHT22;8356;51.214;3.270;2024-03-25T06:19:56;205.50;2252.80
16491;DHT22;8356;51.214;3.270;2024-03-25T06:22:21;205.50;2252.80
16491;DHT22;8356;51.214;3.270;2024-03-25T06:24:47;205.50;2252.80
16491;DHT22;8356;51.214;3.270;2024-03-25T06:27:15;205.40;2252.80
16491;DHT22;8356;51.214;3.270;2024-03-25T06:29:41;205.50;2252.80
16491;DHT22;8356;51.214;3.270;2024-03-25T06:32:06;205.50;2252.80
16491;DHT22;8356;51.214;3.270;2024-03-25T06:34:51;205.60;2252.80
16491;DHT22;8356;51.214;3.270;2024-03-25T06:37:16;205.60;2252.80
16491;DHT22;8356;51.214;3.270;2024-03-25T06:39:42;205.40;2252.80
16491;DHT22;8356;51.214;3.270;2024-03-25T06:42:07;205.40;2252.80
16491;DHT22;8356;51.214;3.270;2024-03-25T06:44:33;205.30;2252.80
16491;DHT22;8356;51.214;3.270;2024-03-25T06:46:58;205.40;2252.80
16491;DHT22;8356;51.214;3.270;2024-03-25T06:49:24;205.40;2252.80
16491;DHT22;8356;51.214;3.270;2024-03-25T06:51:50;205.40;2252.80
16491;DHT22;8356;51.214;3.270;2024-03-25T06:54:15;205.50;2252.80
16491;DHT22;8356;51.214;3.270;2024-03-25T06:56:41;205.50;2252.80
16491;DHT22;8356;51.214;3.270;2024-03-25T06:59:07;205.70;2252.80
16491;DHT22;8356;51.214;3.270;2024-03-25T07:01:32;205.60;2252.80
16491;DHT22;8356;51.214;3.270;2024-03-25T07:03:58;205.60;2252.80
16491;DHT22;8356;51.214;3.270;2024-03-25T07:06:24;205.50;2252.80
16491;DHT22;8356;51.214;3.270;2024-03-25T07:08:50;205.50;2252.80
16491;DHT22;8356;51.214;3.270;2024-03-25T07:11:16;205.50;2252.80
16491;DHT22;8356;51.214;3.270;2024-03-25T07:13:43;205.60;2252.80
16491;DHT22;8356;51.214;3.270;2024-03-25T07:16:09;205.70;2252.80
16491;DHT22;8356;51.214;3.270;2024-03-25T07:18:34;230.40;2252.80
16491;DHT22;8356;51.214;3.270;2024-03-25T07:21:00;230.40;2252.80
16491;DHT22;8356;51.214;3.270;2024-03-25T07:23:26;230.50;2252.80
16491;DHT22;8356;51.214;3.270;2024-03-25T07:25:51;230.80;2252.80
16491;DHT22;8356;51.214;3.270;2024-03-25T07:28:17;230.90;2252.80
16491;DHT22;8356;51.214;3.270;2024-03-25T07:30:42;230.80;2252.80
16491;DHT22;8356;51.214;3.270;2024-03-25T07:33:08;230.90;2252.80
16491;DHT22;8356;51.214;3.270;2024-03-25T07:35:34;230.90;2252.80
16491;DHT22;8356;51.214;3.270;2024-03-25T07:38:00;230.90;2252.80
16491;DHT22;8356;51.214;3.270;2024-03-25T07:40:28;230.90;2252.80
16491;DHT22;8356;51.214;3.270;2024-03-25T07:42:54;231.00;2252.80
16491;DHT22;8356;51.214;3.270;2024-03-25T07:45:19;231.00;2252.80
16491;DHT22;8356;51.214;3.270;2024-03-25T07:47:45;231.00;2252.80
16491;DHT22;8356;51.214;3.270;2024-03-25T07:50:11;230.90;2252.80
16491;DHT22;8356;51.214;3.270;2024-03-25T07:52:37;231.00;2252.80
16491;DHT22;8356;51.214;3.270;2024-03-25T07:55:06;231.20;2252.80
16491;DHT22;8356;51.214;3.270;2024-03-25T07:57:32;231.20;2252.80
16491;DHT22;8356;51.214;3.270;2024-03-25T07:59:58;256.00;2252.80
16491;DHT22;8356;51.214;3.270;2024-03-25T08:02:24;256.10;2252.80
16491;DHT22;8356;51.214;3.270;2024-03-25T08:04:49;256.10;2252.80
16491;DHT22;8356;51.214;3.270;2024-03-25T08:07:15;256.00;2252.80
16491;DHT22;8356;51.214;3.270;2024-03-25T08:09:40;256.10;2252.80
16491;DHT22;8356;51.214;3.270;2024-03-25T08:12:06;256.20;2252.80
16491;DHT22;8356;51.214;3.270;2024-03-25T08:14:32;256.20;2252.80
16491;DHT22;8356;51.214;3.270;2024-03-25T08:16:58;256.40;2252.80
16491;DHT22;8356;51.214;3.270;2024-03-25T08:19:23;256.60;2252.80
16491;DHT22;8356;51.214;3.270;2024-03-25T08:21:49;256.50;2252.80
16491;DHT22;8356;51.214;3.270;2024-03-25T08:24:15;256.70;2252.80
16491;DHT22;8356;51.214;3.270;2024-03-25T08:26:41;256.80;2252.80
16491;DHT22;8356;51.214;3.270;2024-03-25T08:29:06;256.70;2252.80
16491;DHT22;8356;51.214;3.270;2024-03-25T08:31:32;256.50;2252.80
16491;DHT22;8356;51.214;3.270;2024-03-25T08:33:58;256.50;2252.80
16491;DHT22;8356;51.214;3.270;2024-03-25T08:36:23;256.50;2252.80
16491;DHT22;8356;51.214;3.270;2024-03-25T08:38:49;256.50;2252.80
16491;DHT22;8356;51.214;3.270;2024-03-25T08:41:14;256.60;2252.80
16491;DHT22;8356;51.214;3.270;2024-03-25T08:43:40;256.60;2252.80
16491;DHT22;8356;51.214;3.270;2024-03-25T08:46:06;256.60;2252.80
16491;DHT22;8356;51.214;3.270;2024-03-25T08:48:31;256.60;2252.80
16491;DHT22;8356;51.214;3.270;2024-03-25T08:50:57;256.70;2252.80
16491;DHT22;8356;51.214;3.270;2024-03-25T08:53:23;256.80;2252.80
16491;DHT22;8356;51.214;3.270;2024-03-25T08:55:48;256.80;2252.80
16491;DHT22;8356;51.214;3.270;2024-03-25T08:58:15;256.90;2252.80
16491;DHT22;8356;51.214;3.270;2024-03-25T09:00:41;281.70;2278.40
16491;DHT22;8356;51.214;3.270;2024-03-25T09:03:07;281.70;2278.40
16491;DHT22;8356;51.214;3.270;2024-03-25T09:05:34;281.70;2278.40
16491;DHT22;8356;51.214;3.270;2024-03-25T09:08:00;281.80;2278.40
16491;DHT22;8356;51.214;3.270;2024-03-25T09:10:26;256.40;2252.80
16491;DHT22;8356;51.214;3.270;2024-03-25T09:13:11;282.10;2278.40
16491;DHT22;8356;51.214;3.270;2024-03-25T09:15:37;282.20;2278.40
16491;DHT22;8356;51.214;3.270;2024-03-25T09:18:02;282.20;2278.40
16491;DHT22;8356;51.214;3.270;2024-03-25T09:20:28;282.20;2278.40
16491;DHT22;8356;51.214;3.270;2024-03-25T09:22:54;282.30;2278.40
16491;DHT22;8356;51.214;3.270;2024-03-25T09:25:19;282.10;2278.40
16491;DHT22;8356;51.214;3.270;2024-03-25T09:27:49;282.10;2278.40
16491;DHT22;8356;51.214;3.270;2024-03-25T09:30:15;282.20;2278.40
16491;DHT22;8356;51.214;3.270;2024-03-25T09:32:41;282.30;2278.40
16491;DHT22;8356;51.214;3.270;2024-03-25T09:35:08;282.40;2278.40
16491;DHT22;8356;51.214;3.270;2024-03-25T09:37:34;282.40;2278.40
16491;DHT22;8356;51.214;3.270;2024-03-25T09:40:00;282.40;2278.40
16491;DHT22;8356;51.214;3.270;2024-03-25T09:42:27;282.50;2278.40
16491;DHT22;8356;51.214;3.270;2024-03-25T09:44:56;282.40;2278.40
16491;DHT22;8356;51.214;3.270;2024-03-25T09:47:22;307.20;2304.00
16491;DHT22;8356;51.214;3.270;2024-03-25T09:49:48;307.20;2304.00
16491;DHT22;8356;51.214;3.270;2024-03-25T09:52:18;281.70;2278.40
16491;DHT22;8356;51.214;3.270;2024-03-25T09:54:44;307.20;2304.00
16491;DHT22;8356;51.214;3.270;2024-03-25T09:57:11;307.20;2304.00
16491;DHT22;8356;51.214;3.270;2024-03-25T09:59:37;307.30;2304.00
16491;DHT22;8356;51.214;3.270;2024-03-25T10:02:03;307.30;2304.00
16491;DHT22;8356;51.214;3.270;2024-03-25T10:04:29;307.30;2304.00
16491;DHT22;8356;51.214;3.270;2024-03-25T10:06:55;307.40;2304.00
16491;DHT22;8356;51.214;3.270;2024-03-25T10:09:21;307.50;2304.00
16491;DHT22;8356;51.214;3.270;2024-03-25T10:11:50;307.60;2304.00
16491;DHT22;8356;51.214;3.270;2024-03-25T10:14:17;307.80;2304.00
16491;DHT22;8356;51.214;3.270;2024-03-25T10:16:43;307.90;2304.00
16491;DHT22;8356;51.214;3.270;2024-03-25T10:19:09;307.80;2304.00
16491;DHT22;8356;51.214;3.270;2024-03-25T10:21:35;307.90;2304.00
16491;DHT22;8356;51.214;3.270;2024-03-25T10:24:04;308.00;2304.00
16491;DHT22;8356;51.214;3.270;2024-03-25T10:26:31;308.00;2304.00
16491;DHT22;8356;51.214;3.270;2024-03-25T10:29:05;308.00;2304.00
16491;DHT22;8356;51.214;3.270;2024-03-25T10:31:33;332.90;2329.60
16491;DHT22;8356;51.214;3.270;2024-03-25T10:33:59;333.10;2329.60
16491;DHT22;8356;51.214;3.270;2024-03-25T10:36:25;333.30;2329.60
16491;DHT22;8356;51.214;3.270;2024-03-25T10:38:56;333.40;2329.60
16491;DHT22;8356;51.214;3.270;2024-03-25T10:41:22;333.00;2329.60
16491;DHT22;8356;51.214;3.270;2024-03-25T10:43:49;333.20;2329.60
16491;DHT22;8356;51.214;3.270;2024-03-25T10:46:19;333.30;2329.60
16491;DHT22;8356;51.214;3.270;2024-03-25T10:48:59;333.30;2329.60
16491;DHT22;8356;51.214;3.270;2024-03-25T10:51:27;333.10;2329.60
16491;DHT22;8356;51.214;3.270;2024-03-25T10:53:54;333.10;2329.60
16491;DHT22;8356;51.214;3.270;2024-03-25T10:56:21;333.20;2329.60
16491;DHT22;8356;51.214;3.270;2024-03-25T10:58:48;333.40;2329.60
16491;DHT22;8356;51.214;3.270;2024-03-25T11:01:19;333.40;2329.60
16491;DHT22;8356;51.214;3.270;2024-03-25T11:03:46;333.50;2329.60
16491;DHT22;8356;51.214;3.270;2024-03-25T11:06:14;358.40;2329.60
16491;DHT22;8356;51.214;3.270;2024-03-25T11:08:39;333.70;2329.60
16491;DHT22;8356;51.214;3.270;2024-03-25T11:11:07;358.70;2329.60
16491;DHT22;8356;51.214;3.270;2024-03-25T11:13:33;358.90;2329.60
16491;DHT22;8356;51.214;3.270;2024-03-25T11:15:59;359.10;2329.60
16491;DHT22;8356;51.214;3.270;2024-03-25T11:18:26;359.10;2329.60
16491;DHT22;8356;51.214;3.270;2024-03-25T11:21:24;359.10;2329.60
16491;DHT22;8356;51.214;3.270;2024-03-25T11:23:50;359.30;2329.60
16491;DHT22;8356;51.214;3.270;2024-03-25T11:26:24;359.30;2329.60
16491;DHT22;8356;51.214;3.270;2024-03-25T11:28:50;384.00;2329.60
16491;DHT22;8356;51.214;3.270;2024-03-25T11:31:20;384.00;2329.60
16491;DHT22;8356;51.214;3.270;2024-03-25T11:33:47;384.10;2329.60
16491;DHT22;8356;51.214;3.270;2024-03-25T11:36:13;384.00;2329.60
16491;DHT22;8356;51.214;3.270;2024-03-25T11:38:38;384.20;2329.60
16491;DHT22;8356;51.214;3.270;2024-03-25T11:41:07;384.20;2329.60
16491;DHT22;8356;51.214;3.270;2024-03-25T11:43:33;384.20;2329.60
16491;DHT22;8356;51.214;3.270;2024-03-25T11:45:59;384.00;2329.60
16491;DHT22;8356;51.214;3.270;2024-03-25T11:48:24;384.00;2329.60
16491;DHT22;8356;51.214;3.270;2024-03-25T11:50:51;384.30;2329.60
16491;DHT22;8356;51.214;3.270;2024-03-25T11:53:17;384.50;2329.60
16491;DHT22;8356;51.214;3.270;2024-03-25T11:55:46;384.50;2329.60
16491;DHT22;8356;51.214;3.270;2024-03-25T11:58:12;384.80;2329.60
16491;DHT22;8356;51.214;3.270;2024-03-25T12:00:46;384.50;2329.60
16491;DHT22;8356;51.214;3.270;2024-03-25T12:03:16;384.20;2329.60
16491;DHT22;8356;51.214;3.270;2024-03-25T12:05:44;359.30;2329.60
16491;DHT22;8356;51.214;3.270;2024-03-25T12:08:10;384.00;2329.60
16491;DHT22;8356;51.214;3.270;2024-03-25T12:10:37;384.20;2329.60
16491;DHT22;8356;51.214;3.270;2024-03-25T12:13:22;384.40;2329.60
16491;DHT22;8356;51.214;3.270;2024-03-25T12:15:50;384.40;2329.60
16491;DHT22;8356;51.214;3.270;2024-03-25T12:18:16;384.40;2329.60
16491;DHT22;8356;51.214;3.270;2024-03-25T12:20:44;384.40;2329.60
16491;DHT22;8356;51.214;3.270;2024-03-25T12:23:10;384.30;2329.60
16491;DHT22;8356;51.214;3.270;2024-03-25T12:25:35;384.30;2329.60
16491;DHT22;8356;51.214;3.270;2024-03-25T12:28:01;384.40;2329.60
16491;DHT22;8356;51.214;3.270;2024-03-25T12:30:27;384.50;2329.60
16491;DHT22;8356;51.214;3.270;2024-03-25T12:32:54;384.60;2329.60
16491;DHT22;8356;51.214;3.270;2024-03-25T12:35:20;384.40;2329.60
16491;DHT22;8356;51.214;3.270;2024-03-25T12:37:47;384.50;2329.60
16491;DHT22;8356;51.214;3.270;2024-03-25T12:40:25;384.50;2329.60
16491;DHT22;8356;51.214;3.270;2024-03-25T12:42:54;384.70;2329.60
16491;DHT22;8356;51.214;3.270;2024-03-25T12:45:21;384.70;2329.60
16491;DHT22;8356;51.214;3.270;2024-03-25T12:47:47;384.90;2329.60
16491;DHT22;8356;51.214;3.270;2024-03-25T12:50:12;384.70;2329.60
16491;DHT22;8356;51.214;3.270;2024-03-25T12:52:38;384.70;2329.60
16491;DHT22;8356;51.214;3.270;2024-03-25T12:55:04;384.90;2329.60
16491;DHT22;8356;51.214;3.270;2024-03-25T12:57:30;409.70;2355.20
16491;DHT22;8356;51.214;3.270;2024-03-25T12:59:55;409.80;2355.20
16491;DHT22;8356;51.214;3.270;2024-03-25T13:02:21;409.90;2355.20
16491;DHT22;8356;51.214;3.270;2024-03-25T13:04:46;409.70;2355.20
16491;DHT22;8356;51.214;3.270;2024-03-25T13:07:12;384.90;2329.60
16491;DHT22;8356;51.214;3.270;2024-03-25T13:09:38;384.90;2329.60
16491;DHT22;8356;51.214;3.270;2024-03-25T13:12:04;384.90;2329.60
16491;DHT22;8356;51.214;3.270;2024-03-25T13:14:30;384.90;2329.60
16491;DHT22;8356;51.214;3.270;2024-03-25T13:16:56;384.80;2329.60
16491;DHT22;8356;51.214;3.270;2024-03-25T13:19:21;384.60;2329.60
16491;DHT22;8356;51.214;3.270;2024-03-25T13:21:47;384.50;2329.60
16491;DHT22;8356;51.214;3.270;2024-03-25T13:24:13;384.50;2329.60
16491;DHT22;8356;51.214;3.270;2024-03-25T13:26:39;384.50;2329.60
16491;DHT22;8356;51.214;3.270;2024-03-25T13:29:05;384.40;2329.60
16491;DHT22;8356;51.214;3.270;2024-03-25T13:31:33;384.50;2329.60
16491;DHT22;8356;51.214;3.270;2024-03-25T13:33:58;384.40;2329.60
16491;DHT22;8356;51.214;3.270;2024-03-25T13:36:24;384.60;2329.60
16491;DHT22;8356;51.214;3.270;2024-03-25T13:38:50;384.60;2329.60
16491;DHT22;8356;51.214;3.270;2024-03-25T13:41:24;384.60;2329.60
16491;DHT22;8356;51.214;3.270;2024-03-25T13:43:50;384.70;2329.60
16491;DHT22;8356;51.214;3.270;2024-03-25T13:46:16;384.90;2329.60
16491;DHT22;8356;51.214;3.270;2024-03-25T13:48:43;384.90;2329.60
16491;DHT22;8356;51.214;3.270;2024-03-25T13:51:08;384.90;2329.60
16491;DHT22;8356;51.214;3.270;2024-03-25T13:53:34;384.90;2329.60
16491;DHT22;8356;51.214;3.270;2024-03-25T13:56:00;409.60;2355.20
16491;DHT22;8356;51.214;3.270;2024-03-25T13:58:26;409.60;2355.20
16491;DHT22;8356;51.214;3.270;2024-03-25T14:00:52;384.90;2329.60
16491;DHT22;8356;51.214;3.270;2024-03-25T14:03:17;409.60;2355.20
16491;DHT22;8356;51.214;3.270;2024-03-25T14:05:44;409.60;2355.20
16491;DHT22;8356;51.214;3.270;2024-03-25T14:08:10;409.80;2355.20
16491;DHT22;8356;51.214;3.270;2024-03-25T14:10:35;409.80;2355.20
16491;DHT22;8356;51.214;3.270;2024-03-25T14:13:01;409.60;2355.20
16491;DHT22;8356;51.214;3.270;2024-03-25T14:15:27;409.60;2355.20
16491;DHT22;8356;51.214;3.270;2024-03-25T14:17:53;409.70;2355.20
16491;DHT22;8356;51.214;3.270;2024-03-25T14:20:18;409.70;2355.20
16491;DHT22;8356;51.214;3.270;2024-03-25T14:22:44;409.60;2355.20
16491;DHT22;8356;51.214;3.270;2024-03-25T14:25:09;409.70;2355.20
16491;DHT22;8356;51.214;3.270;2024-03-25T14:27:35;409.70;2355.20
16491;DHT22;8356;51.214;3.270;2024-03-25T14:30:01;409.70;2355.20
16491;DHT22;8356;51.214;3.270;2024-03-25T14:32:26;409.70;2355.20
16491;DHT22;8356;51.214;3.270;2024-03-25T14:34:52;409.80;2355.20
16491;DHT22;8356;51.214;3.270;2024-03-25T14:37:18;409.80;2355.20
16491;DHT22;8356;51.214;3.270;2024-03-25T14:39:43;409.90;2355.20
16491;DHT22;8356;51.214;3.270;2024-03-25T14:42:09;409.90;2355.20
16491;DHT22;8356;51.214;3.270;2024-03-25T14:44:38;410.00;2355.20
16491;DHT22;8356;51.214;3.270;2024-03-25T14:47:04;409.90;2355.20
16491;DHT22;8356;51.214;3.270;2024-03-25T14:49:30;409.80;2355.20
16491;DHT22;8356;51.214;3.270;2024-03-25T14:51:56;409.90;2355.20
16491;DHT22;8356;51.214;3.270;2024-03-25T14:54:22;409.90;2355.20
16491;DHT22;8356;51.214;3.270;2024-03-25T14:56:48;409.80;2355.20
16491;DHT22;8356;51.214;3.270;2024-03-25T14:59:13;409.80;2355.20